map of CGN home
CGN - Airport
Location
City:  Cologne-Bonn, North Rhine-Westphalia, Germany
Near (Alt.):Köln-Bonn
Name:Konrad Adenauer
ICAO:EDDK
IATA:CGN

Details
Type:Airport (Flugplatz, Airfield)
Latitude:50°51'57"N (50.865917)
Longitude:7°08'34"E (7.142750)
Elevation:302 ft (92 m)
Variation:2.26°E (WMM2015v2 magnetic declination)
0.17° annual change
Runways:3
Longest:12516 × 197 ft (3815 × 60 m), paved

Time
Time Zone:UTC+1 (DST+2)
Local Time:

Weather
METAR:EDDK 041350Z 21010KT CAVOK 05/M04 Q1026 NOSIG
TAF:EDDK 041100Z 0412/0518 15010KT CAVOK
BECMG 0500/0503 14005KT

Related Locations
Nearby:
Farthest:CHT: 11915 mi / 19175 km
Waitangi [Tuuta], CIT, NZ

Find:

   beyond  
but within

Other Information
Maps:
NOTAMs:
Links:
Sources:

  
  • flag of Germany
  • flag of North Rhine-Westphalia
  • flag of Cologne-Bonn
  

Airport Diagram

Airport diagram for CGN

Larger airport diagram (OBSOLETE) from NGA

Sectional Chart

Flight Planning
at skyvector.com

Satellite Image

Google Maps Satellite view

 

Copyright © 2004-2019 Karl L. Swartz. All rights reserved.
The Great Circle Mapper name and logo are trademarks of the Great Circle Mapper.
All other trademarks mentioned herein belong to their respective owners.
Please see credits for attibutions and further copyright information.

  Follow gcmap on Facebook Follow gcmap on Twitter GCmap on LinkedIn

hCard Microformat

Geo Microformat